sensor_id;sensor_type;location;lat;lon;timestamp;pressure;altitude;pressure_sealevel;temperature;humidity
38616;BME280;24370;51.986;4.666;2023-02-04T00:01:30;103410.84;;;16.03;56.85
38616;BME280;24370;51.986;4.666;2023-02-04T00:03:55;103405.88;;;15.47;58.62
38616;BME280;24370;51.986;4.666;2023-02-04T00:06:21;103412.81;;;15.35;57.47
38616;BME280;24370;51.986;4.666;2023-02-04T00:08:46;103406.44;;;16.05;57.50
38616;BME280;24370;51.986;4.666;2023-02-04T00:11:11;103404.13;;;16.50;55.30
38616;BME280;24370;51.986;4.666;2023-02-04T00:13:37;103399.00;;;16.83;53.61
38616;BME280;24370;51.986;4.666;2023-02-04T00:16:02;103407.91;;;15.72;56.46
38616;BME280;24370;51.986;4.666;2023-02-04T00:18:28;103409.81;;;15.83;55.94
38616;BME280;24370;51.986;4.666;2023-02-04T00:20:54;103406.19;;;15.77;57.34
38616;BME280;24370;51.986;4.666;2023-02-04T00:23:19;103409.19;;;15.25;59.67
38616;BME280;24370;51.986;4.666;2023-02-04T00:25:45;103398.31;;;14.96;59.18
38616;BME280;24370;51.986;4.666;2023-02-04T00:28:10;103404.88;;;15.34;59.97
38616;BME280;24370;51.986;4.666;2023-02-04T00:30:35;103406.97;;;14.89;60.94
38616;BME280;24370;51.986;4.666;2023-02-04T00:33:01;103406.84;;;15.56;58.58
38616;BME280;24370;51.986;4.666;2023-02-04T00:35:26;103410.06;;;16.17;55.78
38616;BME280;24370;51.986;4.666;2023-02-04T00:37:52;103398.84;;;16.49;54.04
38616;BME280;24370;51.986;4.666;2023-02-04T00:40:17;103406.19;;;15.74;56.32
38616;BME280;24370;51.986;4.666;2023-02-04T00:42:43;103399.97;;;15.71;57.19
38616;BME280;24370;51.986;4.666;2023-02-04T00:45:09;103405.78;;;16.37;54.65
38616;BME280;24370;51.986;4.666;2023-02-04T00:47:35;103400.50;;;16.31;54.89
38616;BME280;24370;51.986;4.666;2023-02-04T00:50:00;103413.53;;;16.09;54.70
38616;BME280;24370;51.986;4.666;2023-02-04T00:52:26;103423.28;;;15.29;57.86
38616;BME280;24370;51.986;4.666;2023-02-04T00:54:51;103418.72;;;16.00;55.06
38616;BME280;24370;51.986;4.666;2023-02-04T00:57:17;103423.13;;;16.03;56.00
38616;BME280;24370;51.986;4.666;2023-02-04T00:59:43;103423.00;;;15.87;55.83
38616;BME280;24370;51.986;4.666;2023-02-04T01:02:08;103415.94;;;15.03;59.55
38616;BME280;24370;51.986;4.666;2023-02-04T01:04:33;103421.81;;;15.59;59.31
38616;BME280;24370;51.986;4.666;2023-02-04T01:06:59;103414.56;;;15.33;58.12
38616;BME280;24370;51.986;4.666;2023-02-04T01:09:24;103417.16;;;16.24;55.87
38616;BME280;24370;51.986;4.666;2023-02-04T01:11:49;103415.47;;;16.35;55.43
38616;BME280;24370;51.986;4.666;2023-02-04T01:14:15;103408.63;;;16.68;54.13
38616;BME280;24370;51.986;4.666;2023-02-04T01:16:40;103416.75;;;14.96;60.66
38616;BME280;24370;51.986;4.666;2023-02-04T01:19:06;103421.41;;;15.22;59.92
38616;BME280;24370;51.986;4.666;2023-02-04T01:21:31;103414.72;;;15.52;57.76
38616;BME280;24370;51.986;4.666;2023-02-04T01:23:57;103430.91;;;15.86;57.34
38616;BME280;24370;51.986;4.666;2023-02-04T01:26:22;103426.31;;;15.68;56.73
38616;BME280;24370;51.986;4.666;2023-02-04T01:28:48;103438.00;;;15.93;57.40
38616;BME280;24370;51.986;4.666;2023-02-04T01:31:13;103440.75;;;16.05;56.16
38616;BME280;24370;51.986;4.666;2023-02-04T01:33:39;103445.28;;;16.22;54.76
38616;BME280;24370;51.986;4.666;2023-02-04T01:36:05;103446.88;;;16.04;55.36
38616;BME280;24370;51.986;4.666;2023-02-04T01:38:30;103451.03;;;16.93;52.91
38616;BME280;24370;51.986;4.666;2023-02-04T01:40:56;103453.22;;;16.26;54.84
38616;BME280;24370;51.986;4.666;2023-02-04T01:43:22;103450.81;;;16.56;53.99
38616;BME280;24370;51.986;4.666;2023-02-04T01:45:48;103457.81;;;16.54;53.74
38616;BME280;24370;51.986;4.666;2023-02-04T01:48:14;103457.56;;;16.18;55.67
38616;BME280;24370;51.986;4.666;2023-02-04T01:51:08;103446.41;;;16.56;53.20
38616;BME280;24370;51.986;4.666;2023-02-04T01:53:36;103451.75;;;16.66;53.52
38616;BME280;24370;51.986;4.666;2023-02-04T01:56:13;103458.03;;;16.88;52.35
38616;BME280;24370;51.986;4.666;2023-02-04T01:58:40;103466.81;;;16.84;52.38
38616;BME280;24370;51.986;4.666;2023-02-04T02:01:10;103462.53;;;17.04;52.07
38616;BME280;24370;51.986;4.666;2023-02-04T02:03:37;103465.19;;;17.01;51.57
38616;BME280;24370;51.986;4.666;2023-02-04T02:06:02;103466.59;;;16.50;52.38
38616;BME280;24370;51.986;4.666;2023-02-04T02:08:28;103470.34;;;16.87;52.71
38616;BME280;24370;51.986;4.666;2023-02-04T02:10:53;103476.81;;;16.06;54.41
38616;BME280;24370;51.986;4.666;2023-02-04T02:13:20;103481.03;;;15.89;55.16
38616;BME280;24370;51.986;4.666;2023-02-04T02:15:46;103472.72;;;16.47;53.99
38616;BME280;24370;51.986;4.666;2023-02-04T02:18:12;103485.56;;;16.02;56.38
38616;BME280;24370;51.986;4.666;2023-02-04T02:20:38;103474.97;;;15.98;55.99
38616;BME280;24370;51.986;4.666;2023-02-04T02:26:06;103474.75;;;16.87;52.69
38616;BME280;24370;51.986;4.666;2023-02-04T02:28:32;103485.91;;;16.42;54.51
38616;BME280;24370;51.986;4.666;2023-02-04T02:30:57;103477.00;;;16.28;53.71
38616;BME280;24370;51.986;4.666;2023-02-04T02:33:22;103488.22;;;16.01;54.97
38616;BME280;24370;51.986;4.666;2023-02-04T02:35:50;103489.38;;;16.37;53.92
38616;BME280;24370;51.986;4.666;2023-02-04T02:38:17;103493.97;;;16.61;52.54
38616;BME280;24370;51.986;4.666;2023-02-04T02:40:43;103491.16;;;16.39;53.92
38616;BME280;24370;51.986;4.666;2023-02-04T02:43:14;103490.50;;;16.67;52.00
38616;BME280;24370;51.986;4.666;2023-02-04T02:45:41;103500.34;;;15.85;54.59
38616;BME280;24370;51.986;4.666;2023-02-04T02:48:08;103498.88;;;16.13;53.63
38616;BME280;24370;51.986;4.666;2023-02-04T02:50:34;103493.91;;;16.50;52.37
38616;BME280;24370;51.986;4.666;2023-02-04T02:53:00;103491.91;;;16.21;53.55
38616;BME280;24370;51.986;4.666;2023-02-04T02:55:26;103504.31;;;16.33;54.08
38616;BME280;24370;51.986;4.666;2023-02-04T02:57:53;103490.59;;;16.84;53.37
38616;BME280;24370;51.986;4.666;2023-02-04T03:00:22;103493.19;;;16.77;52.69
38616;BME280;24370;51.986;4.666;2023-02-04T03:03:11;103497.84;;;17.22;51.55
38616;BME280;24370;51.986;4.666;2023-02-04T03:05:41;103504.06;;;16.04;53.60
38616;BME280;24370;51.986;4.666;2023-02-04T03:08:09;103501.28;;;15.90;54.54
38616;BME280;24370;51.986;4.666;2023-02-04T03:10:36;103487.66;;;16.40;54.39
38616;BME280;24370;51.986;4.666;2023-02-04T03:13:02;103499.13;;;16.44;52.97
38616;BME280;24370;51.986;4.666;2023-02-04T03:15:29;103494.66;;;16.38;53.02
38616;BME280;24370;51.986;4.666;2023-02-04T03:17:55;103493.34;;;15.87;54.10
38616;BME280;24370;51.986;4.666;2023-02-04T03:20:23;103485.56;;;16.02;55.25
38616;BME280;24370;51.986;4.666;2023-02-04T03:22:50;103487.94;;;16.84;52.44
38616;BME280;24370;51.986;4.666;2023-02-04T03:25:16;103498.19;;;16.37;52.60
38616;BME280;24370;51.986;4.666;2023-02-04T03:27:41;103496.47;;;16.42;52.99
38616;BME280;24370;51.986;4.666;2023-02-04T03:30:07;103501.00;;;16.63;52.00
38616;BME280;24370;51.986;4.666;2023-02-04T03:32:33;103500.72;;;16.26;52.95
38616;BME280;24370;51.986;4.666;2023-02-04T03:34:58;103493.91;;;16.50;53.02
38616;BME280;24370;51.986;4.666;2023-02-04T03:37:24;103494.00;;;16.70;52.04
38616;BME280;24370;51.986;4.666;2023-02-04T03:39:49;103490.69;;;17.01;51.41
38616;BME280;24370;51.986;4.666;2023-02-04T03:42:14;103491.59;;;17.01;50.90
38616;BME280;24370;51.986;4.666;2023-02-04T03:44:40;103497.56;;;16.69;51.38
38616;BME280;24370;51.986;4.666;2023-02-04T03:47:05;103488.09;;;17.02;50.76
38616;BME280;24370;51.986;4.666;2023-02-04T03:49:30;103496.72;;;16.83;51.06
38616;BME280;24370;51.986;4.666;2023-02-04T03:51:56;103500.81;;;16.37;52.12
38616;BME280;24370;51.986;4.666;2023-02-04T03:54:22;103499.00;;;16.32;53.54
38616;BME280;24370;51.986;4.666;2023-02-04T03:56:47;103502.78;;;15.69;54.17
38616;BME280;24370;51.986;4.666;2023-02-04T03:59:12;103497.91;;;16.03;54.35
38616;BME280;24370;51.986;4.666;2023-02-04T04:01:38;103506.34;;;16.73;51.41
38616;BME280;24370;51.986;4.666;2023-02-04T04:04:03;103501.09;;;16.76;51.38
38616;BME280;24370;51.986;4.666;2023-02-04T04:06:28;103496.72;;;16.79;51.38
38616;BME280;24370;51.986;4.666;2023-02-04T04:08:55;103505.41;;;16.63;51.03
38616;BME280;24370;51.986;4.666;2023-02-04T04:11:20;103504.53;;;16.62;51.72
38616;BME280;24370;51.986;4.666;2023-02-04T04:13:46;103509.06;;;16.87;50.75
38616;BME280;24370;51.986;4.666;2023-02-04T04:16:11;103512.56;;;16.79;50.76
38616;BME280;24370;51.986;4.666;2023-02-04T04:18:37;103510.78;;;16.75;51.21
38616;BME280;24370;51.986;4.666;2023-02-04T04:21:02;103501.22;;;16.90;51.23
38616;BME280;24370;51.986;4.666;2023-02-04T04:23:28;103514.34;;;16.81;51.03
38616;BME280;24370;51.986;4.666;2023-02-04T04:25:53;103507.41;;;16.95;50.20
38616;BME280;24370;51.986;4.666;2023-02-04T04:28:18;103503.91;;;16.98;50.46
38616;BME280;24370;51.986;4.666;2023-02-04T04:30:44;103504.03;;;17.25;49.24
38616;BME280;24370;51.986;4.666;2023-02-04T04:33:09;103510.78;;;16.78;50.50
38616;BME280;24370;51.986;4.666;2023-02-04T04:35:35;103521.41;;;16.86;49.98
38616;BME280;24370;51.986;4.666;2023-02-04T04:38:01;103523.03;;;16.61;50.39
38616;BME280;24370;51.986;4.666;2023-02-04T04:40:26;103524.84;;;16.73;50.41
38616;BME280;24370;51.986;4.666;2023-02-04T04:42:52;103524.19;;;17.05;50.69
38616;BME280;24370;51.986;4.666;2023-02-04T04:45:17;103534.25;;;16.38;51.51
38616;BME280;24370;51.986;4.666;2023-02-04T04:47:44;103537.25;;;16.85;50.97
38616;BME280;24370;51.986;4.666;2023-02-04T04:50:09;103543.66;;;17.15;50.12
38616;BME280;24370;51.986;4.666;2023-02-04T04:52:35;103542.47;;;16.75;50.85
38616;BME280;24370;51.986;4.666;2023-02-04T04:55:00;103546.06;;;16.84;50.47
38616;BME280;24370;51.986;4.666;2023-02-04T04:57:26;103544.06;;;16.52;51.24
38616;BME280;24370;51.986;4.666;2023-02-04T04:59:52;103538.97;;;15.80;53.61
38616;BME280;24370;51.986;4.666;2023-02-04T05:02:17;103547.72;;;15.78;53.71
38616;BME280;24370;51.986;4.666;2023-02-04T05:04:43;103545.56;;;16.22;52.57
38616;BME280;24370;51.986;4.666;2023-02-04T05:07:08;103551.25;;;16.74;51.51
38616;BME280;24370;51.986;4.666;2023-02-04T05:09:33;103550.84;;;16.22;52.28
38616;BME280;24370;51.986;4.666;2023-02-04T05:11:59;103550.31;;;16.63;51.01
38616;BME280;24370;51.986;4.666;2023-02-04T05:14:24;103542.53;;;16.82;51.32
38616;BME280;24370;51.986;4.666;2023-02-04T05:16:50;103550.06;;;16.32;52.27
38616;BME280;24370;51.986;4.666;2023-02-04T05:19:15;103556.34;;;15.64;53.99
38616;BME280;24370;51.986;4.666;2023-02-04T05:21:40;103559.94;;;15.70;55.02
38616;BME280;24370;51.986;4.666;2023-02-04T05:24:06;103558.81;;;15.50;55.78
38616;BME280;24370;51.986;4.666;2023-02-04T05:26:31;103550.59;;;15.97;53.80
38616;BME280;24370;51.986;4.666;2023-02-04T05:28:58;103562.31;;;14.86;57.27
38616;BME280;24370;51.986;4.666;2023-02-04T05:31:26;103560.72;;;14.99;56.91
38616;BME280;24370;51.986;4.666;2023-02-04T05:33:51;103549.69;;;15.95;54.12
38616;BME280;24370;51.986;4.666;2023-02-04T05:36:17;103558.41;;;15.88;55.01
38616;BME280;24370;51.986;4.666;2023-02-04T05:38:42;103565.06;;;16.39;52.78
38616;BME280;24370;51.986;4.666;2023-02-04T05:41:08;103558.44;;;15.91;54.49
38616;BME280;24370;51.986;4.666;2023-02-04T05:43:33;103568.84;;;16.69;51.98
38616;BME280;24370;51.986;4.666;2023-02-04T05:45:59;103568.09;;;15.89;53.81
38616;BME280;24370;51.986;4.666;2023-02-04T05:48:25;103561.47;;;16.31;52.83
38616;BME280;24370;51.986;4.666;2023-02-04T05:50:50;103567.66;;;16.33;53.26
38616;BME280;24370;51.986;4.666;2023-02-04T05:53:15;103565.06;;;16.39;53.15
38616;BME280;24370;51.986;4.666;2023-02-04T05:55:41;103567.38;;;17.05;50.98
38616;BME280;24370;51.986;4.666;2023-02-04T05:58:06;103574.34;;;16.94;51.35
38616;BME280;24370;51.986;4.666;2023-02-04T06:00:31;103576.78;;;16.69;51.56
38616;BME280;24370;51.986;4.666;2023-02-04T06:02:57;103568.44;;;17.41;50.18
38616;BME280;24370;51.986;4.666;2023-02-04T06:05:22;103583.25;;;17.11;50.12
38616;BME280;24370;51.986;4.666;2023-02-04T06:07:48;103581.59;;;17.29;49.93
38616;BME280;24370;51.986;4.666;2023-02-04T06:10:14;103579.91;;;17.50;49.52
38616;BME280;24370;51.986;4.666;2023-02-04T06:12:39;103587.75;;;17.26;49.64
38616;BME280;24370;51.986;4.666;2023-02-04T06:15:05;103579.97;;;17.56;49.38
38616;BME280;24370;51.986;4.666;2023-02-04T06:17:30;103583.50;;;17.61;49.06
38616;BME280;24370;51.986;4.666;2023-02-04T06:19:56;103590.38;;;17.25;50.03
38616;BME280;24370;51.986;4.666;2023-02-04T06:22:21;103590.50;;;17.53;49.76
38616;BME280;24370;51.986;4.666;2023-02-04T06:24:48;103599.53;;;17.98;48.12
38616;BME280;24370;51.986;4.666;2023-02-04T06:27:14;103601.28;;;18.02;47.62
38616;BME280;24370;51.986;4.666;2023-02-04T06:29:47;103619.50;;;17.34;49.42
38616;BME280;24370;51.986;4.666;2023-02-04T06:32:13;103616.03;;;17.43;49.36
38616;BME280;24370;51.986;4.666;2023-02-04T06:34:38;103618.59;;;17.26;49.70
38616;BME280;24370;51.986;4.666;2023-02-04T06:37:03;103622.09;;;17.22;49.89
38616;BME280;24370;51.986;4.666;2023-02-04T06:39:29;103615.88;;;17.17;50.02
38616;BME280;24370;51.986;4.666;2023-02-04T06:41:54;103617.63;;;17.15;49.78
38616;BME280;24370;51.986;4.666;2023-02-04T06:44:19;103615.88;;;17.18;50.10
38616;BME280;24370;51.986;4.666;2023-02-04T06:46:45;103617.38;;;16.84;50.88
38616;BME280;24370;51.986;4.666;2023-02-04T06:49:11;103629.41;;;16.49;52.66
38616;BME280;24370;51.986;4.666;2023-02-04T06:51:36;103623.56;;;16.86;51.20
38616;BME280;24370;51.986;4.666;2023-02-04T06:54:02;103618.34;;;16.92;51.10
38616;BME280;24370;51.986;4.666;2023-02-04T06:56:27;103617.00;;;17.56;49.35
38616;BME280;24370;51.986;4.666;2023-02-04T06:58:53;103629.16;;;17.26;49.65
38616;BME280;24370;51.986;4.666;2023-02-04T07:01:19;103621.16;;;17.15;50.11
38616;BME280;24370;51.986;4.666;2023-02-04T07:03:44;103625.75;;;16.36;51.50
38616;BME280;24370;51.986;4.666;2023-02-04T07:06:10;103630.69;;;16.96;50.61
38616;BME280;24370;51.986;4.666;2023-02-04T07:08:35;103629.50;;;16.58;51.90
38616;BME280;24370;51.986;4.666;2023-02-04T07:11:00;103633.41;;;17.02;50.88
38616;BME280;24370;51.986;4.666;2023-02-04T07:13:26;103628.97;;;17.00;50.63
38616;BME280;24370;51.986;4.666;2023-02-04T07:15:51;103641.41;;;17.15;50.20
38616;BME280;24370;51.986;4.666;2023-02-04T07:18:17;103641.88;;;16.64;51.21
38616;BME280;24370;51.986;4.666;2023-02-04T07:20:44;103640.47;;;17.06;50.42
38616;BME280;24370;51.986;4.666;2023-02-04T07:23:09;103636.72;;;16.84;50.94
38616;BME280;24370;51.986;4.666;2023-02-04T07:25:35;103641.38;;;17.08;50.81
38616;BME280;24370;51.986;4.666;2023-02-04T07:28:00;103637.78;;;17.03;51.12
38616;BME280;24370;51.986;4.666;2023-02-04T07:30:28;103637.28;;;16.46;52.14
38616;BME280;24370;51.986;4.666;2023-02-04T07:32:53;103632.00;;;16.44;52.96
38616;BME280;24370;51.986;4.666;2023-02-04T07:35:19;103640.28;;;16.86;51.19
38616;BME280;24370;51.986;4.666;2023-02-04T07:37:44;103649.88;;;16.73;51.55
38616;BME280;24370;51.986;4.666;2023-02-04T07:40:11;103647.19;;;16.72;51.52
38616;BME280;24370;51.986;4.666;2023-02-04T07:42:37;103651.59;;;16.70;51.75
38616;BME280;24370;51.986;4.666;2023-02-04T07:45:02;103654.53;;;17.02;50.92
38616;BME280;24370;51.986;4.666;2023-02-04T07:47:28;103661.75;;;17.26;50.44
38616;BME280;24370;51.986;4.666;2023-02-04T07:49:53;103668.78;;;17.23;50.30
38616;BME280;24370;51.986;4.666;2023-02-04T07:52:22;103667.09;;;17.33;50.57
38616;BME280;24370;51.986;4.666;2023-02-04T07:54:47;103671.44;;;17.23;50.09
38616;BME280;24370;51.986;4.666;2023-02-04T07:57:13;103663.53;;;17.34;50.48
38616;BME280;24370;51.986;4.666;2023-02-04T07:59:38;103663.53;;;17.30;50.45
38616;BME280;24370;51.986;4.666;2023-02-04T08:02:04;103673.31;;;17.45;49.85
38616;BME280;24370;51.986;4.666;2023-02-04T08:04:29;103675.13;;;17.53;49.78
38616;BME280;24370;51.986;4.666;2023-02-04T08:06:54;103677.81;;;17.56;49.58
38616;BME280;24370;51.986;4.666;2023-02-04T08:09:20;103678.75;;;17.67;49.66
38616;BME280;24370;51.986;4.666;2023-02-04T08:11:45;103685.88;;;17.84;49.19
38616;BME280;24370;51.986;4.666;2023-02-04T08:14:13;103682.03;;;17.26;50.44
38616;BME280;24370;51.986;4.666;2023-02-04T08:16:38;103693.75;;;17.74;49.44
38616;BME280;24370;51.986;4.666;2023-02-04T08:19:04;103694.78;;;17.93;49.37
38616;BME280;24370;51.986;4.666;2023-02-04T08:21:29;103687.75;;;18.03;49.26
38616;BME280;24370;51.986;4.666;2023-02-04T08:23:54;103690.47;;;18.25;48.53
38616;BME280;24370;51.986;4.666;2023-02-04T08:26:20;103693.03;;;17.97;48.67
38616;BME280;24370;51.986;4.666;2023-02-04T08:28:45;103693.03;;;17.97;49.21
38616;BME280;24370;51.986;4.666;2023-02-04T08:31:13;103701.09;;;18.37;48.63
38616;BME280;24370;51.986;4.666;2023-02-04T08:33:39;103697.63;;;18.68;47.30
38616;BME280;24370;51.986;4.666;2023-02-04T08:36:05;103707.34;;;18.55;47.35
38616;BME280;24370;51.986;4.666;2023-02-04T08:38:31;103715.28;;;18.62;47.28
38616;BME280;24370;51.986;4.666;2023-02-04T08:40:56;103710.75;;;18.17;48.58
38616;BME280;24370;51.986;4.666;2023-02-04T08:43:22;103723.81;;;17.87;48.91
38616;BME280;24370;51.986;4.666;2023-02-04T08:45:47;103726.38;;;17.73;50.27
38616;BME280;24370;51.986;4.666;2023-02-04T08:48:12;103727.50;;;18.19;48.80
38616;BME280;24370;51.986;4.666;2023-02-04T08:50:40;103726.44;;;17.86;49.72
38616;BME280;24370;51.986;4.666;2023-02-04T08:53:06;103727.41;;;17.94;48.95
38616;BME280;24370;51.986;4.666;2023-02-04T08:55:31;103725.50;;;17.74;49.86
38616;BME280;24370;51.986;4.666;2023-02-04T08:57:57;103720.03;;;17.43;50.27
38616;BME280;24370;51.986;4.666;2023-02-04T09:00:23;103727.69;;;17.06;51.39
38616;BME280;24370;51.986;4.666;2023-02-04T09:02:49;103730.00;;;17.91;50.37
38616;BME280;24370;51.986;4.666;2023-02-04T09:05:14;103727.53;;;18.22;49.29
38616;BME280;24370;51.986;4.666;2023-02-04T09:07:40;103731.94;;;18.17;49.64
38616;BME280;24370;51.986;4.666;2023-02-04T09:10:06;103728.41;;;18.18;49.27
38616;BME280;24370;51.986;4.666;2023-02-04T09:12:31;103729.31;;;18.35;48.77
38616;BME280;24370;51.986;4.666;2023-02-04T09:14:57;103733.84;;;18.67;48.53
38616;BME280;24370;51.986;4.666;2023-02-04T09:17:22;103731.97;;;18.29;48.27
38616;BME280;24370;51.986;4.666;2023-02-04T09:19:48;103734.72;;;18.81;47.78
38616;BME280;24370;51.986;4.666;2023-02-04T09:22:13;103740.03;;;18.80;47.53
38616;BME280;24370;51.986;4.666;2023-02-04T09:24:39;103753.94;;;18.08;49.66
38616;BME280;24370;51.986;4.666;2023-02-04T09:27:05;103758.41;;;18.13;48.61
38616;BME280;24370;51.986;4.666;2023-02-04T09:29:31;103755.00;;;18.59;48.21
38616;BME280;24370;51.986;4.666;2023-02-04T09:31:56;103753.06;;;18.10;49.58
38616;BME280;24370;51.986;4.666;2023-02-04T09:34:22;103751.38;;;18.31;49.24
38616;BME280;24370;51.986;4.666;2023-02-04T09:36:48;103755.00;;;18.55;48.60
38616;BME280;24370;51.986;4.666;2023-02-04T09:39:13;103754.06;;;18.34;48.96
38616;BME280;24370;51.986;4.666;2023-02-04T09:41:39;103762.81;;;18.22;49.26
38616;BME280;24370;51.986;4.666;2023-02-04T09:44:14;103759.31;;;18.25;49.16
38616;BME280;24370;51.986;4.666;2023-02-04T09:46:45;103761.97;;;18.25;49.46
38616;BME280;24370;51.986;4.666;2023-02-04T09:49:11;103758.47;;;18.35;49.00
38616;BME280;24370;51.986;4.666;2023-02-04T09:51:37;103758.53;;;18.54;48.67
38616;BME280;24370;51.986;4.666;2023-02-04T09:54:08;103770.78;;;18.24;48.76
38616;BME280;24370;51.986;4.666;2023-02-04T09:56:36;103770.53;;;17.80;49.76
38616;BME280;24370;51.986;4.666;2023-02-04T09:59:03;103779.63;;;18.26;48.85
38616;BME280;24370;51.986;4.666;2023-02-04T10:01:30;103770.03;;;18.60;48.24
38616;BME280;24370;51.986;4.666;2023-02-04T10:03:59;103776.22;;;18.70;48.46
38616;BME280;24370;51.986;4.666;2023-02-04T10:06:25;103780.50;;;18.26;49.53
38616;BME280;24370;51.986;4.666;2023-02-04T10:08:51;103779.69;;;18.49;49.04
38616;BME280;24370;51.986;4.666;2023-02-04T10:11:19;103780.63;;;18.63;49.54
38616;BME280;24370;51.986;4.666;2023-02-04T10:13:50;103776.31;;;19.44;47.06
38616;BME280;24370;51.986;4.666;2023-02-04T10:16:19;103786.78;;;18.61;48.99
38616;BME280;24370;51.986;4.666;2023-02-04T10:18:46;103786.78;;;18.58;49.57
38616;BME280;24370;51.986;4.666;2023-02-04T10:21:26;103789.56;;;19.12;47.92
38616;BME280;24370;51.986;4.666;2023-02-04T10:23:57;103795.69;;;18.75;47.35
38616;BME280;24370;51.986;4.666;2023-02-04T10:26:26;103795.75;;;19.19;47.50
38616;BME280;24370;51.986;4.666;2023-02-04T10:29:04;103794.66;;;18.33;48.62
38616;BME280;24370;51.986;4.666;2023-02-04T10:31:39;103807.97;;;18.55;47.82
38616;BME280;24370;51.986;4.666;2023-02-04T10:34:22;103793.13;;;19.17;47.15
38616;BME280;24370;51.986;4.666;2023-02-04T10:36:50;103791.28;;;18.87;47.31
38616;BME280;24370;51.986;4.666;2023-02-04T10:39:42;103794.66;;;18.41;48.60
38616;BME280;24370;51.986;4.666;2023-02-04T10:42:19;103789.47;;;18.72;47.27
38616;BME280;24370;51.986;4.666;2023-02-04T10:44:46;103787.72;;;18.80;46.85
38616;BME280;24370;51.986;4.666;2023-02-04T10:47:17;103800.94;;;18.66;47.17
38616;BME280;24370;51.986;4.666;2023-02-04T10:49:54;103800.88;;;18.47;46.80
38616;BME280;24370;51.986;4.666;2023-02-04T10:52:21;103802.66;;;18.52;46.74
38616;BME280;24370;51.986;4.666;2023-02-04T10:54:47;103797.47;;;18.79;46.29
38616;BME280;24370;51.986;4.666;2023-02-04T10:57:26;103802.66;;;18.48;45.72
38616;BME280;24370;51.986;4.666;2023-02-04T11:00:00;103801.78;;;18.50;45.35
38616;BME280;24370;51.986;4.666;2023-02-04T11:03:18;103798.41;;;19.02;44.27
38616;BME280;24370;51.986;4.666;2023-02-04T11:05:20;103798.41;;;19.03;43.97
38616;BME280;24370;51.986;4.666;2023-02-04T11:07:48;103797.53;;;19.17;43.66
38616;BME280;24370;51.986;4.666;2023-02-04T11:10:22;103798.38;;;18.97;44.46
38616;BME280;24370;51.986;4.666;2023-02-04T11:15:40;103792.22;;;18.99;43.99
38616;BME280;24370;51.986;4.666;2023-02-04T11:18:25;103776.28;;;19.69;43.07
38616;BME280;24370;51.986;4.666;2023-02-04T11:20:57;103783.38;;;19.52;42.40
38616;BME280;24370;51.986;4.666;2023-02-04T11:28:49;103792.81;;;18.24;45.63
38616;BME280;24370;51.986;4.666;2023-02-04T11:33:43;103791.53;;;17.59;47.25
38616;BME280;24370;51.986;4.666;2023-02-04T11:36:10;103793.78;;;18.37;46.02
38616;BME280;24370;51.986;4.666;2023-02-04T11:38:37;103787.78;;;18.98;45.01
38616;BME280;24370;51.986;4.666;2023-02-04T11:41:03;103781.50;;;18.55;45.23
38616;BME280;24370;51.986;4.666;2023-02-04T11:43:33;103782.09;;;17.95;46.43
38616;BME280;24370;51.986;4.666;2023-02-04T11:46:19;103784.25;;;18.99;44.11
38616;BME280;24370;51.986;4.666;2023-02-04T11:48:44;103777.22;;;19.42;43.13
38616;BME280;24370;51.986;4.666;2023-02-04T11:51:15;103777.22;;;19.00;45.01
38616;BME280;24370;51.986;4.666;2023-02-04T11:53:41;103776.31;;;19.01;43.81
38616;BME280;24370;51.986;4.666;2023-02-04T11:56:17;103786.03;;;18.97;44.94
38616;BME280;24370;51.986;4.666;2023-02-04T11:58:43;103778.06;;;19.61;43.16
38616;BME280;24370;51.986;4.666;2023-02-04T12:01:22;103775.44;;;19.25;43.00
38616;BME280;24370;51.986;4.666;2023-02-04T12:03:55;103785.16;;;19.56;43.35
38616;BME280;24370;51.986;4.666;2023-02-04T12:06:22;103781.63;;;18.95;44.00
38616;BME280;24370;51.986;4.666;2023-02-04T12:08:47;103776.31;;;19.44;43.63
38616;BME280;24370;51.986;4.666;2023-02-04T12:11:27;103784.28;;;19.55;42.72
38616;BME280;24370;51.986;4.666;2023-02-04T12:13:56;103778.09;;;19.14;43.63
38616;BME280;24370;51.986;4.666;2023-02-04T12:16:23;103786.06;;;19.33;43.31
38616;BME280;24370;51.986;4.666;2023-02-04T12:18:49;103782.50;;;18.92;44.13
38616;BME280;24370;51.986;4.666;2023-02-04T12:21:15;103785.09;;;18.78;43.89
38616;BME280;24370;51.986;4.666;2023-02-04T12:23:41;103792.22;;;19.01;43.39
38616;BME280;24370;51.986;4.666;2023-02-04T12:26:07;103794.00;;;19.45;42.57
38616;BME280;24370;51.986;4.666;2023-02-04T12:28:33;103795.69;;;18.81;44.20
38616;BME280;24370;51.986;4.666;2023-02-04T12:30:58;103796.53;;;18.67;44.06
38616;BME280;24370;51.986;4.666;2023-02-04T12:33:24;103792.22;;;19.35;43.51
38616;BME280;24370;51.986;4.666;2023-02-04T12:35:49;103786.94;;;19.09;42.45
38616;BME280;24370;51.986;4.666;2023-02-04T12:38:15;103789.56;;;19.12;43.01
38616;BME280;24370;51.986;4.666;2023-02-04T12:40:40;103798.44;;;19.12;42.69
38616;BME280;24370;51.986;4.666;2023-02-04T12:43:06;103792.25;;;19.41;43.03
38616;BME280;24370;51.986;4.666;2023-02-04T12:45:31;103790.47;;;19.49;42.92
38616;BME280;24370;51.986;4.666;2023-02-04T12:47:57;103785.09;;;19.96;42.44
38616;BME280;24370;51.986;4.666;2023-02-04T12:50:22;103783.34;;;19.92;42.34
38616;BME280;24370;51.986;4.666;2023-02-04T12:52:53;103788.66;;;19.76;42.52
38616;BME280;24370;51.986;4.666;2023-02-04T12:55:19;103779.88;;;19.28;42.61
38616;BME280;24370;51.986;4.666;2023-02-04T12:57:45;103791.34;;;19.39;42.19
38616;BME280;24370;51.986;4.666;2023-02-04T13:00:13;103786.91;;;19.38;42.45
38616;BME280;24370;51.986;4.666;2023-02-04T13:02:38;103782.50;;;19.23;43.41